Time;durP1;ratioP1;P1;durP2;ratioP2;P2;SDS_P1;SDS_P2;PMS_P1;PMS_P2;Temp;Humidity;BMP_temperature;BMP_pressure;BME280_temperature;BME280_humidity;BME280_pressure;Samples;Min_cycle;Max_cycle;Signal;HPM_P1;HPM_P2
2023/03/12 00:00:50;;;;;;;7.60;2.03;;;-1.20;99.90;;;-0.70;88.29;100351.69;5026971;28;20481;-76
2023/03/12 00:03:16;;;;;;;5.45;1.98;;;-1.10;99.90;;;-0.64;88.15;100346.59;5029145;28;20491;-75
2023/03/12 00:05:44;;;;;;;4.75;1.98;;;-1.10;99.90;;;-0.63;87.75;100345.59;5032760;28;20037;-76
2023/03/12 00:08:11;;;;;;;5.38;1.92;;;-1.10;99.90;;;-0.68;86.65;100337.13;5030801;28;20040;-76
2023/03/12 00:10:39;;;;;;;7.22;2.33;;;-1.00;99.90;;;-0.56;86.29;100353.03;5031029;28;20516;-77
2023/03/12 00:13:06;;;;;;;4.78;1.98;;;-1.00;99.90;;;-0.57;86.49;100343.28;5029501;28;20033;-76
2023/03/12 00:15:38;;;;;;;4.73;2.03;;;-0.90;99.90;;;-0.61;86.65;100334.69;5030416;28;20053;-76
2023/03/12 00:18:04;;;;;;;4.97;1.80;;;-0.90;99.90;;;-0.48;85.30;100348.59;5031058;28;20290;-76
2023/03/12 00:20:30;;;;;;;7.53;1.90;;;-0.90;99.90;;;-0.47;84.58;100350.28;5031640;28;20404;-76
2023/03/12 00:22:55;;;;;;;6.10;1.80;;;-0.90;99.90;;;-0.44;84.13;100352.66;5037186;28;20029;-76
2023/03/12 00:25:21;;;;;;;7.88;2.15;;;-0.80;99.90;;;-0.40;83.62;100347.81;5029121;28;20042;-76
2023/03/12 00:27:47;;;;;;;4.50;1.80;;;-0.70;99.90;;;-0.36;82.86;100340.31;5027836;28;20392;-76
2023/03/12 00:30:13;;;;;;;5.05;1.80;;;-0.70;99.90;;;-0.35;82.49;100342.00;5030456;28;20528;-76
2023/03/12 00:32:40;;;;;;;5.55;1.67;;;-0.60;99.90;;;-0.28;82.32;100343.06;5027671;28;20037;-77
2023/03/12 00:35:07;;;;;;;4.05;1.83;;;-0.60;99.90;;;-0.24;82.54;100348.97;5029463;28;20041;-76
2023/03/12 00:37:33;;;;;;;6.23;1.70;;;-0.60;99.90;;;-0.27;82.49;100350.09;5027265;28;20029;-77
2023/03/12 00:40:00;;;;;;;6.25;1.88;;;-0.60;99.90;;;-0.36;82.83;100337.63;5030872;28;20312;-76
2023/03/12 00:42:27;;;;;;;7.80;3.15;;;-0.60;99.90;;;-0.33;83.20;100350.72;5046472;28;20056;-76
2023/03/12 00:44:53;;;;;;;6.22;2.08;;;-0.70;99.90;;;-0.45;84.46;100344.75;5030271;28;20091;-76
2023/03/12 00:47:19;;;;;;;5.78;1.65;;;-0.80;99.90;;;-0.48;85.10;100343.22;5013253;28;20029;-76
2023/03/12 00:49:44;;;;;;;4.25;1.95;;;-0.80;99.90;;;-0.55;85.75;100339.44;5043068;28;20477;-76
2023/03/12 00:52:10;;;;;;;7.32;2.00;;;-0.90;99.90;;;-0.57;86.01;100344.13;5029874;28;20045;-76
2023/03/12 00:54:36;;;;;;;4.57;2.17;;;-0.90;99.90;;;-0.55;86.49;100349.34;5030599;28;20103;-75
2023/03/12 00:57:02;;;;;;;5.95;2.25;;;-1.00;99.90;;;-0.64;86.84;100340.38;5030329;28;20037;-76
2023/03/12 00:59:28;;;;;;;4.60;1.65;;;-1.00;99.90;;;-0.72;86.66;100335.75;5029838;28;20044;-75
2023/03/12 01:01:53;;;;;;;7.32;2.03;;;-1.00;99.90;;;-0.66;86.96;100337.84;5026236;28;20053;-75
2023/03/12 01:04:19;;;;;;;3.83;1.90;;;-1.00;99.90;;;-0.77;86.97;100333.56;5045198;28;20033;-75
2023/03/12 01:06:45;;;;;;;5.10;1.73;;;-1.00;99.90;;;-0.76;87.56;100337.91;5030775;28;20068;-76
2023/03/12 01:09:10;;;;;;;6.78;1.80;;;-1.00;99.90;;;-0.77;87.07;100330.00;5037231;28;20464;-75
2023/03/12 01:11:37;;;;;;;5.22;2.00;;;-1.00;99.90;;;-0.76;87.88;100340.59;5030276;28;20397;-75
2023/03/12 01:14:06;;;;;;;6.00;2.13;;;-1.00;99.90;;;-0.73;88.07;100336.75;5045318;28;20120;-75
2023/03/12 01:16:32;;;;;;;3.95;1.83;;;-1.00;99.90;;;-0.79;87.88;100340.03;5045344;28;20041;-76
2023/03/12 01:19:00;;;;;;;5.35;1.90;;;-1.00;99.90;;;-0.78;88.63;100341.72;5041355;28;20113;-76
2023/03/12 01:21:28;;;;;;;9.38;2.30;;;-1.00;99.90;;;-0.82;89.93;100338.50;5044981;28;20037;-76
2023/03/12 01:23:55;;;;;;;5.75;2.15;;;-1.00;99.90;;;-1.00;91.69;100335.78;5029567;28;20120;-76
2023/03/12 01:26:22;;;;;;;4.78;2.00;;;-1.00;99.90;;;-0.88;92.14;100347.13;5025187;28;20273;-76
2023/03/12 01:28:48;;;;;;;7.15;2.20;;;-1.10;99.90;;;-0.93;92.22;100342.25;5035262;28;20083;-76
2023/03/12 01:31:17;;;;;;;7.85;2.35;;;-1.20;99.90;;;-0.94;93.29;100331.66;5045088;28;20033;-76
2023/03/12 01:33:46;;;;;;;6.55;2.42;;;-1.10;99.90;;;-0.94;92.89;100345.06;5027206;28;20117;-76
2023/03/12 01:36:26;;;;;;;6.80;2.58;;;-1.10;99.90;;;-0.98;93.01;100335.63;5044520;28;20065;-76
2023/03/12 01:38:57;;;;;;;5.00;2.47;;;-1.10;99.90;;;-1.04;93.53;100324.53;5027265;28;20600;-76
2023/03/12 01:41:27;;;;;;;5.30;2.15;;;-1.10;99.90;;;-1.02;93.47;100324.38;5030850;28;20051;-76
2023/03/12 01:43:53;;;;;;;5.72;2.38;;;-1.10;99.90;;;-0.92;93.49;100335.03;5025909;28;20100;-76
2023/03/12 01:46:29;;;;;;;6.88;2.83;;;-1.00;99.90;;;-0.83;92.88;100334.13;5041508;28;20486;-77
2023/03/12 01:49:07;;;;;;;8.98;2.90;;;-1.10;99.90;;;-0.92;92.64;100330.53;5028406;28;20030;-76
2023/03/12 01:51:51;;;;;;;8.40;2.25;;;-1.00;99.90;;;-0.92;92.73;100329.69;4997469;28;20408;-77
2023/03/12 01:54:39;;;;;;;8.10;2.70;;;-1.10;99.90;;;-0.84;92.69;100324.41;5029825;28;20034;-76
2023/03/12 01:57:13;;;;;;;5.00;2.30;;;-1.00;99.90;;;-0.80;91.64;100322.28;5023629;28;20106;-76
2023/03/12 02:00:06;;;;;;;9.88;2.45;;;-1.00;99.90;;;-0.69;90.70;100316.69;5044402;28;20036;-76
2023/03/12 02:02:40;;;;;;;6.72;2.80;;;-1.00;99.90;;;-0.74;90.83;100322.53;5029401;28;20048;-76
2023/03/12 02:05:30;;;;;;;7.45;2.47;;;-1.00;99.90;;;-0.67;88.79;100317.38;5043782;28;20033;-77
2023/03/12 02:07:57;;;;;;;;;;;-0.90;99.90;;;-0.65;88.91;100314.56;5027895;28;20041;-76
2023/03/12 02:10:24;;;;;;;6.45;2.15;;;-0.90;99.90;;;-0.66;88.47;100311.06;5028879;28;19924;-76
2023/03/12 02:12:52;;;;;;;5.50;2.40;;;-0.80;99.90;;;-0.66;87.95;100304.84;5044356;28;20037;-76
2023/03/12 02:15:18;;;;;;;4.85;2.25;;;-0.80;99.90;;;-0.56;88.00;100305.59;5028099;28;20041;-76
2023/03/12 02:17:44;;;;;;;5.40;2.53;;;-0.80;99.90;;;-0.59;87.59;100305.91;5023370;28;20032;-77
2023/03/12 02:20:52;;;;;;;4.95;2.30;;;-0.80;99.90;;;-0.54;87.71;100303.63;5041977;28;20136;-76
2023/03/12 02:23:45;;;;;;;7.38;2.28;;;-0.80;99.90;;;-0.63;87.67;100305.41;5037367;28;20060;-76
2023/03/12 02:26:13;;;;;;;8.63;2.58;;;-0.90;99.90;;;-0.63;87.65;100309.91;5019962;28;20446;-76
2023/03/12 02:28:44;;;;;;;7.22;2.40;;;-0.90;99.90;;;-0.60;88.60;100306.91;5004614;28;20030;-76
2023/03/12 02:31:22;;;;;;;4.28;2.25;;;-1.00;99.90;;;-0.68;88.88;100299.63;5023761;28;20402;-76
2023/03/12 02:33:48;;;;;;;4.32;2.35;;;-1.00;99.90;;;-0.82;90.27;100306.34;5039563;28;20119;-76
2023/03/12 02:36:14;;;;;;;5.35;2.30;;;-1.10;99.90;;;-0.78;90.62;100315.78;5024483;28;20049;-76
2023/03/12 02:38:49;;;;;;;6.60;2.40;;;-1.10;99.90;;;-0.77;90.58;100317.47;5029008;28;20029;-76
2023/03/12 02:41:24;;;;;;;6.70;2.20;;;-1.10;99.90;;;-0.82;90.45;100305.53;5046681;28;20064;-76
2023/03/12 02:44:15;;;;;;;9.07;2.83;;;-1.10;99.90;;;-0.85;90.07;100311.19;5032812;28;20139;-76
2023/03/12 02:46:45;;;;;;;8.98;2.63;;;-1.10;99.90;;;-0.79;90.59;100315.94;5013624;28;20037;-76
2023/03/12 02:49:12;;;;;;;6.40;2.00;;;-1.20;99.90;;;-0.83;90.40;100322.59;5042905;28;20048;-76
2023/03/12 02:51:41;;;;;;;4.57;2.22;;;-1.20;99.90;;;-0.83;89.88;100331.44;5048146;28;20077;-76
2023/03/12 02:54:07;;;;;;;;;;;-1.20;99.90;;;-0.89;90.72;100324.88;5033444;28;20532;-76
2023/03/12 02:56:34;;;;;;;7.13;2.13;;;-1.20;99.90;;;-0.96;90.43;100315.72;5032246;28;20369;-76
2023/03/12 02:59:00;;;;;;;5.15;1.92;;;-1.20;99.90;;;-0.94;90.89;100323.63;5029700;28;20034;-76
2023/03/12 03:01:26;;;;;;;5.32;2.15;;;-1.20;99.90;;;-0.91;90.55;100321.50;5043054;28;20038;-77
2023/03/12 03:03:53;;;;;;;4.38;2.28;;;-1.20;99.90;;;-0.97;91.30;100321.25;5031230;28;20040;-77
2023/03/12 03:06:19;;;;;;;7.10;2.75;;;-1.20;99.90;;;-0.93;90.67;100319.97;5032803;28;20068;-77
2023/03/12 03:08:45;;;;;;;7.30;2.40;;;-1.30;99.90;;;-0.92;90.58;100313.59;5041257;28;20029;-77
2023/03/12 03:11:12;;;;;;;7.97;2.47;;;-1.30;99.90;;;-0.92;90.26;100313.59;5051416;28;20405;-77
2023/03/12 03:13:38;;;;;;;7.90;3.13;;;-1.30;99.90;;;-0.94;90.17;100315.59;5047979;28;20037;-77
2023/03/12 03:16:05;;;;;;;5.85;2.58;;;-1.30;99.90;;;-0.92;89.63;100308.25;5031259;28;20061;-77
2023/03/12 03:18:32;;;;;;;4.70;2.27;;;-1.30;99.90;;;-0.88;89.91;100315.84;5031331;28;20037;-77
2023/03/12 03:21:02;;;;;;;7.35;2.33;;;-1.30;99.90;;;-0.88;89.51;100312.31;5031858;28;20055;-77
2023/03/12 03:23:31;;;;;;;4.60;2.10;;;-1.30;99.90;;;-0.90;89.58;100307.13;5048561;28;20389;-77
2023/03/12 03:25:58;;;;;;;4.47;2.10;;;-1.30;99.90;;;-0.89;88.93;100308.81;5011231;28;20370;-77
2023/03/12 03:28:26;;;;;;;6.55;2.45;;;-1.30;99.90;;;-0.93;89.21;100310.09;5031592;28;20037;-78
2023/03/12 03:30:57;;;;;;;6.93;2.53;;;-1.30;99.90;;;-1.00;89.96;100308.16;5046628;28;20045;-77
2023/03/12 03:33:23;;;;;;;9.68;2.55;;;-1.40;99.90;;;-1.02;90.37;100313.66;5045970;28;20034;-78
2023/03/12 03:35:49;;;;;;;5.78;2.47;;;-1.40;99.90;;;-1.02;90.70;100317.19;5032271;28;20065;-78
2023/03/12 03:38:16;;;;;;;7.18;2.15;;;-1.50;99.90;;;-1.03;90.12;100315.50;5041211;28;20033;-78
2023/03/12 03:40:42;;;;;;;4.63;1.92;;;-1.50;99.90;;;-1.05;90.11;100313.97;5034672;28;20406;-77
2023/03/12 03:43:08;;;;;;;5.32;2.10;;;-1.50;99.90;;;-1.06;90.91;100315.81;5031205;28;20497;-77
2023/03/12 03:45:34;;;;;;;5.72;2.30;;;-1.50;99.90;;;-1.05;90.22;100320.19;5041235;28;20079;-78
2023/03/12 03:48:00;;;;;;;5.35;2.50;;;-1.50;99.90;;;-1.12;91.05;100316.38;5029731;28;20037;-77
2023/03/12 03:50:26;;;;;;;5.35;2.30;;;-1.50;99.90;;;-1.23;91.12;100316.59;5031201;28;20033;-77
2023/03/12 03:52:52;;;;;;;4.80;1.85;;;-1.60;99.90;;;-1.32;92.73;100329.88;5029291;28;20037;-77
2023/03/12 03:55:17;;;;;;;10.27;3.03;;;-1.70;99.90;;;-1.53;94.13;100329.25;5047202;28;20033;-77
2023/03/12 03:57:43;;;;;;;4.80;2.10;;;-1.90;99.90;;;-1.65;94.55;100329.41;5043848;28;20041;-77
2023/03/12 04:00:11;;;;;;;5.90;2.17;;;-1.90;99.90;;;-1.68;94.58;100318.16;5032402;28;20083;-77
2023/03/12 04:02:41;;;;;;;5.75;2.53;;;-1.90;99.90;;;-1.75;94.51;100324.06;5010493;28;20026;-77
2023/03/12 04:05:10;;;;;;;4.30;1.98;;;-2.00;99.90;;;-1.74;95.56;100333.78;5029093;28;20021;-76
2023/03/12 04:07:36;;;;;;;4.75;2.25;;;-2.00;99.90;;;-1.75;94.96;100328.59;5030290;28;20041;-76
2023/03/12 04:10:04;;;;;;;4.82;2.20;;;-2.00;99.90;;;-1.76;95.58;100322.38;5046931;28;20069;-76
2023/03/12 04:12:30;;;;;;;6.30;2.30;;;-2.10;99.90;;;-1.77;95.53;100326.03;5046102;28;20048;-76
2023/03/12 04:14:56;;;;;;;4.75;2.38;;;-2.10;99.90;;;-1.78;96.83;100323.53;5039176;28;20029;-75
2023/03/12 04:17:22;;;;;;;5.53;2.13;;;-2.10;99.90;;;-1.83;96.46;100323.13;5041024;28;20083;-75
2023/03/12 04:19:47;;;;;;;6.68;2.20;;;-2.10;99.90;;;-1.84;97.31;100326.78;5030461;28;20049;-75
2023/03/12 04:22:13;;;;;;;5.22;2.58;;;-2.20;99.90;;;-1.88;97.44;100315.53;5046989;28;20395;-76
2023/03/12 04:24:39;;;;;;;8.15;2.35;;;-2.20;99.90;;;-1.90;98.09;100326.34;5017869;28;20038;-76
2023/03/12 04:27:05;;;;;;;6.03;2.63;;;-2.20;99.90;;;-1.84;98.12;100324.13;5025451;28;20032;-75
2023/03/12 04:29:32;;;;;;;5.25;2.42;;;-2.20;99.90;;;-1.86;97.36;100320.72;5043170;28;20099;-75
2023/03/12 04:31:58;;;;;;;8.35;2.67;;;-2.20;99.90;;;-1.83;97.33;100328.47;5046639;28;20481;-76
2023/03/12 04:34:24;;;;;;;6.65;2.53;;;-2.30;99.90;;;-1.85;97.52;100333.13;5030633;28;20496;-75
2023/03/12 04:36:52;;;;;;;6.72;2.30;;;-2.30;99.90;;;-1.86;98.87;100339.44;5026882;28;20033;-76
2023/03/12 04:39:19;;;;;;;5.43;2.55;;;-2.30;99.90;;;-1.83;98.98;100339.16;5027638;28;20438;-75
2023/03/12 04:41:47;;;;;;;6.43;2.67;;;-2.30;99.90;;;-1.86;100.00;100326.91;5004321;28;20044;-74
2023/03/12 04:44:15;;;;;;;6.20;3.38;;;-2.30;99.90;;;-1.84;99.91;100330.28;5046610;28;20038;-74
2023/03/12 04:46:42;;;;;;;4.93;2.17;;;-2.30;99.90;;;-1.87;100.00;100325.22;5036476;28;20124;-74
2023/03/12 04:49:10;;;;;;;5.32;2.53;;;-2.30;99.90;;;-1.97;100.00;100330.59;5045894;28;20029;-75
2023/03/12 04:51:37;;;;;;;6.65;3.13;;;-2.40;99.90;;;-1.95;100.00;100336.63;5045498;28;20037;-75
2023/03/12 04:54:04;;;;;;;5.82;2.83;;;-2.40;99.90;;;-1.97;100.00;100343.13;5045842;28;20041;-75
2023/03/12 04:56:30;;;;;;;7.18;2.60;;;-2.50;99.90;;;-1.93;100.00;100332.00;5026290;28;20053;-75
2023/03/12 04:58:57;;;;;;;6.55;2.53;;;-2.50;99.90;;;-1.97;100.00;100321.75;5027691;28;20041;-74
2023/03/12 05:01:33;;;;;;;6.75;2.63;;;-2.60;99.90;;;-1.97;100.00;100325.25;5030082;28;20034;-74
2023/03/12 05:04:03;;;;;;;6.40;2.60;;;-2.60;99.90;;;-2.01;100.00;100331.88;5040783;28;20116;-74
2023/03/12 05:06:29;;;;;;;5.35;2.63;;;-2.70;99.90;;;-2.04;100.00;100329.47;5030526;28;20036;-73
2023/03/12 05:08:56;;;;;;;7.57;2.95;;;-2.70;99.90;;;-2.05;100.00;100322.44;5031044;28;20485;-74
2023/03/12 05:11:22;;;;;;;6.75;2.75;;;-2.60;99.90;;;-1.94;100.00;100327.63;5027756;28;20052;-74
2023/03/12 05:13:48;;;;;;;6.40;3.10;;;-2.50;99.90;;;-1.78;100.00;100323.53;5028424;28;20033;-74
2023/03/12 05:16:15;;;;;;;7.05;2.90;;;-2.30;99.90;;;-1.56;100.00;100321.50;5029860;28;20558;-74
2023/03/12 05:18:43;;;;;;;6.13;2.35;;;-2.10;99.90;;;-1.41;99.76;100319.22;5028592;28;20045;-74
2023/03/12 05:21:19;;;;;;;9.98;3.15;;;-1.90;99.90;;;-1.26;97.71;100306.19;5035864;28;20073;-74
2023/03/12 05:23:46;;;;;;;4.60;2.30;;;-1.70;99.90;;;-1.11;96.76;100299.31;5029172;28;20037;-74
2023/03/12 05:26:20;;;;;;;5.00;2.83;;;-1.60;99.90;;;-0.98;94.98;100304.31;5026670;28;20052;-74
2023/03/12 05:28:46;;;;;;;4.90;2.70;;;-1.50;99.90;;;-0.97;94.89;100299.81;5022786;28;20091;-74
2023/03/12 05:31:17;;;;;;;6.68;3.35;;;-1.30;99.90;;;-0.87;94.89;100298.78;5036017;28;20026;-74
2023/03/12 05:33:43;;;;;;;5.60;2.38;;;-1.20;99.90;;;-0.86;94.17;100288.91;5042219;28;20489;-73
2023/03/12 05:36:10;;;;;;;6.13;3.10;;;-1.10;99.90;;;-0.76;91.92;100278.13;5028379;28;20051;-73
2023/03/12 05:38:36;;;;;;;5.28;2.45;;;-1.00;99.90;;;-0.63;90.80;100281.28;5010776;28;20560;-75
2023/03/12 05:41:03;;;;;;;6.40;2.63;;;-0.80;99.90;;;-0.55;90.24;100283.16;5030093;28;20477;-75
2023/03/12 05:43:33;;;;;;;5.35;2.20;;;-0.70;99.90;;;-0.49;89.39;100281.72;5044191;28;20501;-75
2023/03/12 05:46:03;;;;;;;7.32;2.28;;;-0.70;99.90;;;-0.44;88.65;100274.91;5036524;28;20442;-75
2023/03/12 05:48:30;;;;;;;4.25;2.25;;;-0.60;99.90;;;-0.38;87.78;100268.09;5028912;28;20125;-75
2023/03/12 05:50:56;;;;;;;5.28;2.10;;;-0.60;99.90;;;-0.25;87.82;100273.06;5045207;28;20041;-75
2023/03/12 05:53:23;;;;;;;8.07;2.60;;;-0.60;99.90;;;-0.38;88.97;100269.94;5026186;28;20045;-75
2023/03/12 05:55:49;;;;;;;6.05;2.13;;;-0.60;99.90;;;-0.49;89.81;100266.50;5044225;28;20437;-75
2023/03/12 05:58:15;;;;;;;4.78;2.40;;;-0.60;99.90;;;-0.52;89.77;100263.28;5028850;28;20044;-75
2023/03/12 06:00:43;;;;;;;6.07;2.40;;;-0.70;99.90;;;-0.46;89.45;100260.81;5027358;28;20076;-75
2023/03/12 06:03:11;;;;;;;4.30;2.10;;;-0.60;99.90;;;-0.30;88.41;100254.75;5023687;28;20029;-74
2023/03/12 06:05:37;;;;;;;5.55;2.30;;;-0.60;99.90;;;-0.28;88.13;100256.44;5027572;28;20161;-76
2023/03/12 06:08:05;;;;;;;5.85;2.40;;;-0.50;99.90;;;-0.30;87.48;100254.75;5003083;28;20478;-76
2023/03/12 06:10:31;;;;;;;5.63;2.22;;;-0.50;99.90;;;-0.27;88.19;100263.47;5030096;28;20037;-76
2023/03/12 06:12:57;;;;;;;6.88;2.42;;;-0.50;99.90;;;-0.45;87.92;100254.47;5013257;28;20055;-76
2023/03/12 06:15:23;;;;;;;5.45;2.53;;;-0.50;99.90;;;-0.27;87.30;100253.59;5042063;28;20087;-76
2023/03/12 06:17:49;;;;;;;8.25;2.22;;;-0.40;99.90;;;-0.23;87.87;100260.34;5043759;28;20033;-77
2023/03/12 06:20:16;;;;;;;7.75;2.50;;;-0.40;99.90;;;-0.14;88.14;100247.81;5037128;28;20493;-77
2023/03/12 06:22:41;;;;;;;8.35;2.45;;;-0.40;99.90;;;-0.12;87.98;100243.16;5029540;28;20092;-77
2023/03/12 06:25:08;;;;;;;6.40;2.30;;;-0.30;99.90;;;0.10;88.16;100246.31;5044141;28;20160;-76
2023/03/12 06:27:34;;;;;;;3.95;2.30;;;-0.30;99.90;;;0.08;88.48;100243.78;5025576;28;20099;-74
2023/03/12 06:30:00;;;;;;;4.47;2.40;;;-0.20;99.90;;;0.08;88.87;100232.22;5029018;28;20038;-74
2023/03/12 06:32:26;;;;;;;5.30;2.30;;;-0.20;99.90;;;-0.04;88.86;100237.00;5028034;28;20048;-75
2023/03/12 06:34:51;;;;;;;7.68;2.60;;;-0.20;99.90;;;-0.06;89.54;100236.31;5027517;28;20051;-74
2023/03/12 06:37:17;;;;;;;7.63;2.80;;;-0.20;99.90;;;-0.02;89.24;100233.16;5027587;28;20033;-75
2023/03/12 06:39:43;;;;;;;6.57;2.70;;;-0.20;99.90;;;0.02;88.35;100238.22;5033576;28;20041;-75
2023/03/12 06:42:09;;;;;;;5.75;3.03;;;-0.10;99.90;;;0.29;87.95;100226.47;5029717;28;20472;-75
2023/03/12 06:44:35;;;;;;;8.43;3.03;;;-0.10;99.90;;;0.44;87.00;100226.72;5028471;28;20045;-75
2023/03/12 06:47:01;;;;;;;8.40;2.38;;;0.00;99.90;;;0.49;86.64;100226.22;5028216;28;20038;-75
2023/03/12 06:49:30;;;;;;;7.07;2.90;;;0.00;99.90;;;0.52;84.83;100223.19;5027865;28;20022;-76
2023/03/12 06:51:56;;;;;;;6.50;2.70;;;0.10;99.90;;;0.62;83.77;100223.06;5029107;28;20425;-76
2023/03/12 06:54:22;;;;;;;7.40;2.63;;;0.20;99.90;;;0.53;82.62;100219.50;5029240;28;20044;-76
2023/03/12 06:56:47;;;;;;;8.10;2.58;;;0.30;99.90;;;0.71;81.76;100212.22;5029433;28;20033;-76
2023/03/12 06:59:13;;;;;;;7.05;2.65;;;0.40;99.90;;;0.93;81.17;100217.13;5028383;28;20064;-78
2023/03/12 07:01:39;;;;;;;5.18;3.00;;;0.50;99.90;;;1.02;80.97;100204.56;5044091;28;20401;-77
2023/03/12 07:04:05;;;;;;;6.65;3.45;;;0.60;99.90;;;1.00;80.04;100207.44;5027692;28;20025;-77
2023/03/12 07:06:31;;;;;;;8.63;3.88;;;0.60;99.90;;;1.14;79.85;100208.63;5029252;28;20361;-78
2023/03/12 07:08:57;;;;;;;6.97;3.63;;;0.70;99.90;;;1.16;78.66;100190.47;5029106;28;20034;-76
2023/03/12 07:11:22;;;;;;;7.03;3.30;;;0.80;99.90;;;1.25;77.01;100205.59;5044501;28;20037;-78
2023/03/12 07:13:48;;;;;;;6.40;3.13;;;0.90;99.90;;;1.25;77.43;100197.53;5029162;28;20557;-77
2023/03/12 07:16:14;;;;;;;8.10;3.15;;;0.90;99.90;;;1.54;77.10;100203.44;5029107;28;20046;-78
2023/03/12 07:18:39;;;;;;;6.13;2.80;;;1.10;99.90;;;1.60;77.28;100202.75;5028815;28;20034;-78
2023/03/12 07:21:05;;;;;;;4.38;2.70;;;1.10;99.90;;;1.41;76.03;100199.38;5028802;28;20042;-77
2023/03/12 07:23:31;;;;;;;5.35;2.75;;;1.20;99.90;;;1.18;77.21;100201.06;5043667;28;20084;-77
2023/03/12 07:25:57;;;;;;;6.70;3.10;;;1.10;99.90;;;1.09;80.28;100202.91;5028576;28;20041;-77
2023/03/12 07:28:22;;;;;;;6.13;3.10;;;1.10;99.90;;;0.97;81.57;100195.16;5027677;28;20042;-77
2023/03/12 07:30:49;;;;;;;5.97;3.28;;;1.00;99.90;;;0.86;82.60;100195.47;5032655;28;20033;-78
2023/03/12 07:33:18;;;;;;;7.05;2.90;;;0.90;99.90;;;0.90;81.72;100186.06;5031502;28;20477;-77
2023/03/12 07:35:46;;;;;;;8.73;2.78;;;1.00;99.90;;;1.12;80.95;100189.16;5048219;28;20480;-79
2023/03/12 07:38:12;;;;;;;6.60;2.80;;;1.10;99.90;;;1.26;79.76;100191.16;5031592;28;20041;-79
2023/03/12 07:40:38;;;;;;;5.40;2.55;;;1.20;99.90;;;1.48;78.46;100188.81;5032896;28;20539;-77
2023/03/12 07:43:09;;;;;;;5.20;2.70;;;1.40;99.90;;;1.62;76.30;100183.78;5030116;28;20038;-78
2023/03/12 07:45:39;;;;;;;6.22;2.70;;;1.60;99.90;;;1.75;76.39;100177.88;5028421;28;20125;-77
2023/03/12 07:48:06;;;;;;;6.32;2.50;;;1.80;99.90;;;1.65;75.94;100173.50;5031198;28;20068;-77
2023/03/12 07:50:32;;;;;;;7.90;2.88;;;1.70;99.90;;;1.86;75.81;100190.97;5031926;28;20116;-78
2023/03/12 07:52:58;;;;;;;4.95;2.83;;;1.80;99.90;;;1.74;76.25;100185.09;5025194;28;20112;-78
2023/03/12 07:55:23;;;;;;;5.82;2.60;;;1.70;99.90;;;1.58;75.14;100177.88;5032064;28;20040;-77
2023/03/12 07:57:49;;;;;;;6.47;2.83;;;1.70;99.90;;;1.70;76.16;100186.44;5031817;28;20139;-78
2023/03/12 08:00:16;;;;;;;8.65;2.95;;;1.70;99.90;;;1.75;74.10;100181.41;5031130;28;20080;-79
2023/03/12 08:02:42;;;;;;;5.18;2.22;;;1.80;99.90;;;1.91;73.24;100183.22;5032549;28;20033;-77
2023/03/12 08:05:09;;;;;;;5.40;2.35;;;1.90;99.90;;;2.00;72.19;100167.91;5025858;28;20037;-76
2023/03/12 08:07:35;;;;;;;4.45;2.42;;;2.10;99.90;;;2.37;72.22;100187.94;5027439;28;20037;-77
2023/03/12 08:10:05;;;;;;;5.47;2.63;;;2.20;99.90;;;2.64;71.20;100174.22;5050357;28;20033;-77
2023/03/12 08:12:31;;;;;;;5.82;2.50;;;2.40;99.90;;;2.35;70.03;100171.13;5032131;28;20072;-77
2023/03/12 08:14:56;;;;;;;5.18;2.25;;;2.40;99.90;;;2.36;70.70;100169.28;5032010;28;20479;-77
2023/03/12 08:17:22;;;;;;;7.32;2.60;;;2.30;99.90;;;2.32;72.30;100162.59;5032244;28;20041;-77
2023/03/12 08:19:48;;;;;;;5.47;2.10;;;2.40;99.90;;;2.13;70.14;100152.06;5030500;28;20046;-77
2023/03/12 08:22:14;;;;;;;5.78;2.30;;;2.30;99.90;;;2.39;71.70;100153.63;5032623;28;20045;-77
2023/03/12 08:24:39;;;;;;;5.70;2.30;;;2.40;99.90;;;2.39;70.37;100132.09;5031263;28;20064;-76
2023/03/12 08:27:05;;;;;;;4.78;2.08;;;2.50;99.90;;;2.41;70.15;100132.75;5031685;28;20397;-78
2023/03/12 08:29:32;;;;;;;6.38;2.25;;;2.60;99.90;;;2.34;70.92;100134.47;5031548;28;20260;-78
2023/03/12 08:31:59;;;;;;;10.93;3.05;;;2.60;99.90;;;2.62;72.02;100142.06;5031363;28;20042;-78
2023/03/12 08:34:24;;;;;;;4.68;2.22;;;2.60;99.90;;;2.81;69.80;100142.63;5031216;28;20056;-76
2023/03/12 08:36:50;;;;;;;6.10;2.13;;;2.70;99.90;;;2.97;68.22;100134.44;5031183;28;20045;-76
2023/03/12 08:39:16;;;;;;;5.03;2.17;;;2.80;99.90;;;2.92;66.87;100144.94;5043628;28;20037;-75
2023/03/12 08:41:41;;;;;;;5.72;2.15;;;2.90;99.90;;;3.12;67.55;100139.03;5031194;28;20037;-75
2023/03/12 08:44:07;;;;;;;6.88;2.15;;;3.00;99.90;;;3.23;67.29;100144.03;5030931;28;20034;-76
2023/03/12 08:46:33;;;;;;;4.80;2.13;;;3.10;99.90;;;3.70;66.99;100141.22;5030985;28;20032;-77
2023/03/12 08:48:59;;;;;;;10.70;2.10;;;3.30;99.90;;;4.18;64.24;100133.59;5030894;28;20603;-77
2023/03/12 08:51:25;;;;;;;4.35;1.73;;;3.50;99.90;;;3.85;62.91;100134.00;5043457;28;20030;-76
2023/03/12 08:53:51;;;;;;;5.50;2.00;;;3.70;99.90;;;3.47;62.82;100131.34;5045271;28;20044;-76
2023/03/12 08:56:16;;;;;;;6.57;1.70;;;3.60;99.90;;;3.28;63.82;100124.59;5033729;28;20135;-76
2023/03/12 08:58:42;;;;;;;4.43;1.50;;;3.40;99.90;;;3.17;63.50;100124.00;5030928;28;20406;-76
2023/03/12 09:01:13;;;;;;;5.32;1.85;;;3.40;99.90;;;3.45;64.55;100141.47;5030339;28;20042;-76
2023/03/12 09:03:40;;;;;;;4.40;1.90;;;3.40;99.90;;;3.57;63.32;100148.09;5030780;28;20044;-75
2023/03/12 09:06:15;;;;;;;8.10;2.25;;;3.50;99.90;;;3.82;63.62;100147.84;5028490;28;20045;-76
2023/03/12 09:08:43;;;;;;;6.00;2.03;;;3.60;99.90;;;3.90;62.18;100144.25;5030505;28;20369;-76
2023/03/12 09:11:11;;;;;;;6.18;2.22;;;3.80;99.90;;;3.82;62.01;100147.84;5036784;28;20046;-76
2023/03/12 09:13:38;;;;;;;6.38;1.98;;;3.80;99.90;;;3.67;61.92;100142.44;5042535;28;20516;-76
2023/03/12 09:16:04;;;;;;;5.72;1.90;;;3.70;99.90;;;3.76;63.13;100148.59;5029818;28;20045;-76
2023/03/12 09:18:31;;;;;;;6.97;1.95;;;3.70;99.90;;;3.66;62.98;100142.63;5030142;28;20103;-76
2023/03/12 09:20:57;;;;;;;7.20;2.00;;;3.60;99.90;;;3.68;62.85;100154.06;5029779;28;20492;-76
2023/03/12 09:23:25;;;;;;;9.07;2.10;;;3.60;99.90;;;4.00;62.37;100146.66;5029809;28;20061;-75
2023/03/12 09:25:51;;;;;;;8.55;1.88;;;3.80;99.90;;;4.06;60.59;100135.13;5030254;28;20103;-75
2023/03/12 09:28:17;;;;;;;5.68;1.92;;;4.10;99.90;;;4.27;60.21;100133.53;5029356;28;20595;-76
2023/03/12 09:30:43;;;;;;;5.72;1.70;;;4.20;99.90;;;4.45;60.35;100131.25;5045665;28;20036;-76
2023/03/12 09:33:09;;;;;;;7.78;2.47;;;4.30;99.90;;;4.39;58.36;100126.59;5029557;28;20029;-76
2023/03/12 09:35:35;;;;;;;7.47;1.52;;;4.40;99.90;;;4.05;59.85;100119.94;5029854;28;20034;-76
2023/03/12 09:38:02;;;;;;;3.92;1.77;;;4.30;99.90;;;4.13;59.43;100129.81;5030335;28;20029;-76
2023/03/12 09:40:36;;;;;;;5.20;1.83;;;4.20;99.90;;;4.38;59.47;100132.22;5032909;28;20037;-76
2023/03/12 09:43:16;;;;;;;5.40;1.90;;;4.30;99.90;;;4.58;57.56;100108.13;5030367;28;20615;-76
2023/03/12 09:45:45;;;;;;;4.72;1.63;;;4.50;99.90;;;4.78;55.78;100110.22;5030756;28;20064;-77
2023/03/12 09:48:34;;;;;;;8.55;1.92;;;4.70;99.90;;;4.96;55.43;100109.78;5029536;28;20555;-76
2023/03/12 09:51:23;;;;;;;5.80;1.77;;;4.90;99.90;;;5.36;54.59;100110.13;5023664;28;20103;-78
2023/03/12 09:54:01;;;;;;;3.22;1.35;;;5.10;99.90;;;5.65;53.65;100092.00;5024055;28;20039;-79
2023/03/12 09:56:28;;;;;;;5.82;1.50;;;5.50;99.90;;;5.50;52.38;100075.06;5029218;28;20091;-83
2023/03/12 09:58:55;;;;;;;6.13;1.83;;;5.50;99.90;;;5.26;53.38;100050.94;5029465;28;20026;-83
2023/03/12 10:01:47;;;;;;;4.03;1.70;;;5.40;99.90;;;4.74;54.40;100061.13;5029774;28;20037;-79
2023/03/12 10:04:35;;;;;;;4.43;1.70;;;5.10;99.90;;;5.00;54.43;100062.38;5028636;28;20045;-80
2023/03/12 10:07:24;;;;;;;5.97;1.60;;;5.10;99.90;;;5.25;54.58;100068.22;5028185;28;20120;-80
2023/03/12 10:10:46;;;;;;;5.43;1.80;;;5.30;99.90;;;5.51;54.55;100055.91;5028059;28;20037;-77
2023/03/12 10:13:51;;;;;;;5.05;1.65;;;5.50;99.90;;;5.28;54.96;100046.16;5023412;28;20291;-79
2023/03/12 10:16:40;;;;;;;6.25;1.77;;;5.40;99.90;;;5.49;54.45;100046.34;5027706;28;20528;-78
2023/03/12 10:19:48;;;;;;;6.05;1.95;;;5.50;99.90;;;6.20;53.35;100045.25;5023170;28;20116;-78
2023/03/12 10:22:45;;;;;;;4.15;1.85;;;5.90;99.90;;;5.98;51.67;100030.97;5029515;28;20029;-78
2023/03/12 10:25:54;;;;;;;6.57;1.85;;;6.20;99.60;;;5.72;53.08;100027.09;5029828;28;20040;-78